Cardiff, Maryland
Current Conditions -  °F | °C
As of 4:55 PM on Tuesday 21 Oct 2014 (Local Time) from KMTN Reporting Station
Broken Clouds Broken Clouds  
Wind Chill: 64°   Ceiling: 4000
Heat Index: 64°   Visibility: 10mi
Dew Point: 54°   Wind: 7mph
Humidity: 68%   Direction: 120°ESE
Pressure: 29.82"   Gusts: NA
Location:  39.7064°N, 76.3071°W
Report Text: KMTN 212055Z 12006KT 10SM BKN040 BKN150 18/12 A2982
Loading
Personal Weather Stations






























Interactive Weather Map
Tropical Storm Tracking
New forecast layout! Learn more

10-Day Weather Forecast

Advertisements
Track Severe Weather on mobile